Time;durP1;ratioP1;P1;durP2;ratioP2;P2;SDS_P1;SDS_P2;PMS_P1;PMS_P2;Temp;Humidity;BMP_temperature;BMP_pressure;BME280_temperature;BME280_humidity;BME280_pressure;Samples;Min_cycle;Max_cycle;Signal;HPM_P1;HPM_P2
2022/04/26 03:37:23;;;;;;;32.55;20.05;;;6.30;81.20;;;;;;4850924;29;20052;-74
2022/04/26 03:39:51;;;;;;;30.02;19.42;;;6.30;81.20;;;;;;4859610;29;20052;-74
2022/04/26 03:42:19;;;;;;;30.70;19.13;;;6.30;81.20;;;;;;4845513;29;20054;-74
2022/04/26 03:44:46;;;;;;;33.42;20.27;;;6.30;81.30;;;;;;4847857;29;20048;-74
2022/04/26 03:47:14;;;;;;;34.28;20.00;;;6.30;81.30;;;;;;4843853;29;20046;-74
2022/04/26 03:49:42;;;;;;;32.03;20.33;;;6.30;81.30;;;;;;4859551;29;20069;-74
2022/04/26 03:52:09;;;;;;;32.97;20.15;;;6.20;81.30;;;;;;4860155;29;20054;-75
2022/04/26 03:54:37;;;;;;;29.88;19.80;;;6.20;81.30;;;;;;4842404;29;20054;-74
2022/04/26 03:57:06;;;;;;;26.77;19.50;;;6.20;81.30;;;;;;4841664;29;20109;-74
2022/04/26 03:59:33;;;;;;;34.70;19.92;;;6.20;81.40;;;;;;4841834;29;20049;-74
2022/04/26 04:02:01;;;;;;;33.17;20.38;;;6.20;81.40;;;;;;4852330;29;20423;-74
2022/04/26 04:04:29;;;;;;;36.08;20.30;;;6.10;81.40;;;;;;4856576;29;20056;-74
2022/04/26 04:06:57;;;;;;;33.47;19.02;;;6.10;81.40;;;;;;4841909;29;20065;-74
2022/04/26 04:09:24;;;;;;;30.40;19.85;;;6.00;81.40;;;;;;4860038;29;20058;-74
2022/04/26 04:11:52;;;;;;;32.15;19.98;;;6.00;81.50;;;;;;4859588;29;20093;-74
2022/04/26 04:14:20;;;;;;;30.50;19.80;;;5.90;81.60;;;;;;4859967;29;20427;-74
2022/04/26 04:16:48;;;;;;;30.92;20.05;;;5.80;81.60;;;;;;4848062;29;20065;-74
2022/04/26 04:19:18;;;;;;;29.95;20.17;;;5.80;81.70;;;;;;4824445;29;20050;-74
2022/04/26 04:21:48;;;;;;;31.67;19.55;;;5.70;81.90;;;;;;4848508;29;20060;-74
2022/04/26 04:24:16;;;;;;;37.70;21.27;;;5.70;82.00;;;;;;4858426;29;20045;-74
2022/04/26 04:26:44;;;;;;;34.40;21.10;;;5.60;82.20;;;;;;4859373;29;20061;-74
2022/04/26 04:29:12;;;;;;;34.03;21.20;;;5.50;82.30;;;;;;4859716;29;20049;-74
2022/04/26 04:31:41;;;;;;;33.47;21.42;;;5.40;82.40;;;;;;4847471;29;20080;-74
2022/04/26 04:34:09;;;;;;;39.25;22.73;;;5.30;82.50;;;;;;4840098;29;20501;-74
2022/04/26 04:36:36;;;;;;;34.88;22.35;;;5.30;82.70;;;;;;4832772;29;20590;-74
2022/04/26 04:39:04;;;;;;;36.80;24.10;;;5.20;82.80;;;;;;4834193;29;20054;-75
2022/04/26 04:41:41;;;;;;;42.00;23.85;;;5.00;83.00;;;;;;4844067;29;20523;-74
2022/04/26 04:44:08;;;;;;;46.95;25.00;;;5.00;83.20;;;;;;4845838;29;20054;-73
2022/04/26 04:46:36;;;;;;;40.10;24.10;;;4.90;83.40;;;;;;4845944;29;20049;-73
2022/04/26 04:49:04;;;;;;;36.72;24.67;;;4.90;83.60;;;;;;4858875;29;20045;-74
2022/04/26 04:51:32;;;;;;;45.67;24.65;;;4.90;83.70;;;;;;4858345;29;20053;-74
2022/04/26 04:54:01;;;;;;;41.22;24.55;;;4.90;83.90;;;;;;4835333;29;20054;-74
2022/04/26 04:56:29;;;;;;;48.95;25.10;;;4.80;84.20;;;;;;4852766;29;20128;-74
2022/04/26 04:58:57;;;;;;;45.22;26.27;;;4.90;84.30;;;;;;4859385;29;20064;-73
2022/04/26 05:01:25;;;;;;;41.30;25.90;;;4.80;84.30;;;;;;4859777;29;20501;-76
2022/04/26 05:03:53;;;;;;;40.85;24.63;;;4.90;84.40;;;;;;4863543;29;20049;-74
2022/04/26 05:06:20;;;;;;;45.17;26.40;;;4.80;84.40;;;;;;4863912;29;20059;-74
2022/04/26 05:08:48;;;;;;;48.80;25.85;;;4.80;84.40;;;;;;4863466;29;20060;-74
2022/04/26 05:11:16;;;;;;;51.78;26.23;;;4.90;84.50;;;;;;4843912;29;20058;-74
2022/04/26 05:13:44;;;;;;;49.83;26.15;;;4.90;84.50;;;;;;4855734;29;20049;-74
2022/04/26 05:16:11;;;;;;;41.63;24.63;;;4.90;84.40;;;;;;4841737;29;20061;-74
2022/04/26 05:18:39;;;;;;;42.40;25.90;;;5.00;84.50;;;;;;4856796;29;20050;-74
2022/04/26 05:21:13;;;;;;;43.25;25.75;;;5.00;84.50;;;;;;4858790;29;20046;-74
2022/04/26 05:26:28;;;;;;;46.25;26.70;;;5.20;84.40;;;;;;4856904;29;20057;-74
2022/04/26 05:28:55;;;;;;;47.92;26.63;;;5.30;84.30;;;;;;4850516;29;20057;-74
2022/04/26 05:31:23;;;;;;;56.25;28.52;;;5.30;84.30;;;;;;4857539;29;20064;-74
2022/04/26 05:33:51;;;;;;;51.38;27.48;;;5.30;84.30;;;;;;4856792;29;20531;-74
2022/04/26 05:36:18;;;;;;;51.35;26.23;;;5.40;84.20;;;;;;4859524;29;20057;-74
2022/04/26 05:38:47;;;;;;;47.28;26.00;;;5.50;84.20;;;;;;4862100;29;20062;-74
2022/04/26 05:41:18;;;;;;;50.85;25.48;;;5.50;84.20;;;;;;4861927;29;20056;-74
2022/04/26 05:43:46;;;;;;;43.72;25.25;;;5.60;84.10;;;;;;4862194;29;20507;-73
2022/04/26 05:46:14;;;;;;;55.08;26.13;;;5.70;84.10;;;;;;4842755;29;20523;-77
2022/04/26 05:48:42;;;;;;;47.95;25.58;;;5.80;84.00;;;;;;4843231;29;20054;-73
2022/04/26 05:51:09;;;;;;;43.70;25.23;;;5.80;84.00;;;;;;4852393;29;20052;-73
2022/04/26 05:53:41;;;;;;;41.03;24.33;;;5.90;83.90;;;;;;4860385;29;20056;-73
2022/04/26 05:56:10;;;;;;;39.40;23.42;;;6.00;83.80;;;;;;4862199;29;20045;-73
2022/04/26 05:58:38;;;;;;;37.00;22.33;;;6.10;83.70;;;;;;4861432;29;20061;-75
2022/04/26 06:01:07;;;;;;;37.45;22.02;;;6.20;83.60;;;;;;4844928;29;20057;-73
2022/04/26 06:03:34;;;;;;;38.83;21.73;;;6.30;83.50;;;;;;4835296;29;20065;-73
2022/04/26 06:06:02;;;;;;;34.15;21.05;;;6.30;83.40;;;;;;4843892;29;20057;-74
2022/04/26 06:08:31;;;;;;;33.67;21.05;;;6.40;83.20;;;;;;4855384;29;20538;-77
2022/04/26 06:10:59;;;;;;;30.52;21.42;;;6.50;83.10;;;;;;4857923;29;20053;-73
2022/04/26 06:13:27;;;;;;;32.55;20.27;;;6.70;83.00;;;;;;4861561;29;20054;-74
2022/04/26 06:15:55;;;;;;;34.40;20.92;;;6.70;82.80;;;;;;4844074;29;20054;-74
2022/04/26 06:18:23;;;;;;;33.42;20.00;;;6.80;82.70;;;;;;4861149;29;20042;-75
2022/04/26 06:20:50;;;;;;;25.17;17.27;;;6.90;82.50;;;;;;4857878;29;20475;-74
2022/04/26 06:23:18;;;;;;;23.60;15.85;;;7.00;82.40;;;;;;4843493;29;20374;-75
2022/04/26 06:25:45;;;;;;;20.65;13.52;;;7.00;82.20;;;;;;4843282;29;20345;-74
2022/04/26 06:28:13;;;;;;;18.17;10.57;;;7.20;81.90;;;;;;4856956;29;20057;-74
2022/04/26 06:30:41;;;;;;;14.40;9.80;;;7.30;81.60;;;;;;4836293;29;20049;-74
2022/04/26 06:33:08;;;;;;;17.05;9.57;;;7.30;81.30;;;;;;4856721;29;20057;-74
2022/04/26 06:35:43;;;;;;;16.42;9.20;;;7.30;80.90;;;;;;4859870;29;20046;-74
2022/04/26 06:38:11;;;;;;;18.88;9.25;;;7.50;80.40;;;;;;4857491;29;20061;-74
2022/04/26 06:40:39;;;;;;;16.00;9.40;;;7.50;80.10;;;;;;4844147;29;20042;-74
2022/04/26 06:43:07;;;;;;;16.42;9.52;;;7.60;79.90;;;;;;4858494;29;20049;-74
2022/04/26 06:45:34;;;;;;;18.27;9.93;;;7.60;79.70;;;;;;4844807;29;20049;-75
2022/04/26 06:48:10;;;;;;;16.23;9.45;;;7.70;79.50;;;;;;4847302;29;20068;-75
2022/04/26 06:50:38;;;;;;;17.88;9.57;;;7.80;79.20;;;;;;4853916;29;20049;-74
2022/04/26 06:53:06;;;;;;;20.33;9.88;;;7.80;78.90;;;;;;4854337;29;20408;-75
2022/04/26 06:55:34;;;;;;;19.35;9.80;;;7.90;78.60;;;;;;4859998;29;20050;-75
2022/04/26 06:58:02;;;;;;;16.80;10.02;;;8.00;78.40;;;;;;4853808;29;20404;-75
2022/04/26 07:00:30;;;;;;;11.55;9.38;;;8.10;78.10;;;;;;4854090;29;20064;-74
2022/04/26 07:02:58;;;;;;;15.43;9.80;;;8.10;77.90;;;;;;4842670;29;20057;-74
2022/04/26 07:05:26;;;;;;;16.85;9.20;;;8.20;77.70;;;;;;4859014;29;20046;-75
2022/04/26 07:07:54;;;;;;;18.30;9.57;;;8.20;77.40;;;;;;4859603;29;20046;-74
2022/04/26 07:10:22;;;;;;;12.82;7.97;;;8.30;77.10;;;;;;4859586;29;20049;-74
2022/04/26 07:12:50;;;;;;;13.85;7.45;;;8.30;76.80;;;;;;4859943;29;20484;-74
2022/04/26 07:15:18;;;;;;;9.60;7.32;;;8.40;76.30;;;;;;4843241;29;20053;-74
2022/04/26 07:17:45;;;;;;;14.57;8.40;;;8.40;75.90;;;;;;4842792;29;20065;-74
2022/04/26 07:20:13;;;;;;;13.27;8.45;;;8.50;75.50;;;;;;4852585;29;20057;-75
2022/04/26 07:22:41;;;;;;;14.20;8.60;;;8.50;75.30;;;;;;4858802;29;20046;-74
2022/04/26 07:25:12;;;;;;;14.27;7.50;;;8.50;74.90;;;;;;4857383;29;20097;-74
2022/04/26 07:27:40;;;;;;;13.02;8.00;;;8.60;74.70;;;;;;4858285;29;20049;-75
2022/04/26 07:30:08;;;;;;;16.63;8.55;;;8.70;74.40;;;;;;4859380;29;20050;-75
2022/04/26 07:35:22;;;;;;;14.50;8.23;;;8.80;73.90;;;;;;4858713;29;20483;-74
2022/04/26 07:37:52;;;;;;;9.95;8.60;;;8.90;73.70;;;;;;4843563;29;20057;-75
2022/04/26 07:40:21;;;;;;;11.20;7.03;;;9.00;73.10;;;;;;4859893;29;20101;-74
2022/04/26 07:42:49;;;;;;;11.10;7.53;;;9.10;72.90;;;;;;4859482;29;20076;-73
2022/04/26 07:45:17;;;;;;;10.85;7.72;;;9.20;72.50;;;;;;4859654;29;20053;-73
2022/04/26 07:47:45;;;;;;;14.13;7.90;;;9.30;72.10;;;;;;4858654;29;20104;-73
2022/04/26 07:50:13;;;;;;;12.93;8.07;;;9.30;71.80;;;;;;4859336;29;20412;-75
2022/04/26 07:52:45;;;;;;;13.25;7.45;;;9.40;71.70;;;;;;4858286;29;20053;-75
2022/04/26 07:55:12;;;;;;;14.15;7.22;;;9.50;71.10;;;;;;4860419;29;20057;-75
2022/04/26 07:57:40;;;;;;;14.40;7.72;;;9.50;70.90;;;;;;4843028;29;20053;-75
2022/04/26 08:00:08;;;;;;;13.98;7.57;;;9.60;70.60;;;;;;4858061;29;20141;-75
2022/04/26 08:02:41;;;;;;;11.30;7.20;;;9.70;70.30;;;;;;4860100;29;20050;-75
2022/04/26 08:05:09;;;;;;;13.43;6.35;;;9.70;70.10;;;;;;4843522;29;20057;-75
2022/04/26 08:07:41;;;;;;;11.45;6.60;;;9.70;70.00;;;;;;4859960;29;20069;-75
2022/04/26 08:10:11;;;;;;;16.70;7.40;;;9.70;70.00;;;;;;4837144;29;20051;-75
2022/04/26 08:12:40;;;;;;;15.00;6.82;;;9.80;70.00;;;;;;4824927;29;20050;-75
2022/04/26 08:15:10;;;;;;;10.27;6.38;;;9.80;70.00;;;;;;4839940;29;20061;-76
2022/04/26 08:17:37;;;;;;;11.18;6.97;;;9.90;69.90;;;;;;4841152;29;20399;-75
2022/04/26 08:20:06;;;;;;;8.82;6.65;;;10.00;69.90;;;;;;4840392;29;20054;-75
2022/04/26 08:22:34;;;;;;;10.40;6.60;;;10.20;70.00;;;;;;4836930;29;20405;-75
2022/04/26 08:27:49;;;;;;;11.38;6.38;;;10.30;69.00;;;;;;4823076;29;20046;-74
2022/04/26 08:30:17;;;;;;;12.48;6.25;;;10.50;69.10;;;;;;4837000;29;20053;-74
2022/04/26 08:32:47;;;;;;;13.23;7.25;;;10.60;68.70;;;;;;4823203;29;20047;-74
2022/04/26 08:35:20;;;;;;;11.93;6.47;;;10.70;68.40;;;;;;4838689;29;20045;-74
2022/04/26 08:37:48;;;;;;;13.00;6.07;;;10.70;68.30;;;;;;4840950;29;20504;-74
2022/04/26 08:40:16;;;;;;;8.55;6.03;;;10.70;68.20;;;;;;4841020;29;20065;-74
2022/04/26 08:42:46;;;;;;;8.23;5.97;;;10.80;68.00;;;;;;4824714;29;20069;-75
2022/04/26 08:45:16;;;;;;;7.20;5.78;;;10.90;68.00;;;;;;4841221;29;20380;-74
2022/04/26 08:53:21;;;;;;;10.20;5.35;;;11.30;67.00;;;;;;4840965;29;20057;-74
2022/04/26 08:55:51;;;;;;;10.77;6.20;;;11.40;66.30;;;;;;4844356;29;20058;-74
2022/04/26 08:58:20;;;;;;;8.95;5.30;;;11.50;66.20;;;;;;4841243;29;20385;-74
2022/04/26 09:01:10;;;;;;;11.38;5.60;;;11.50;65.80;;;;;;4840246;29;20065;-74
2022/04/26 09:03:54;;;;;;;13.07;6.00;;;11.60;65.70;;;;;;4824311;29;20140;-74
2022/04/26 09:06:21;;;;;;;8.68;5.85;;;11.70;64.90;;;;;;4840779;29;20105;-74
2022/04/26 09:08:49;;;;;;;6.65;4.95;;;11.80;65.10;;;;;;4832541;29;20049;-74
2022/04/26 09:11:32;;;;;;;7.43;5.00;;;11.90;64.80;;;;;;4859845;29;20526;-74
2022/04/26 09:14:01;;;;;;;;;;;12.10;64.40;;;;;;4861908;29;20053;-74
2022/04/26 09:16:29;;;;;;;8.65;5.20;;;12.20;63.50;;;;;;4863029;29;19924;-74
2022/04/26 09:18:59;;;;;;;8.95;5.20;;;12.30;63.50;;;;;;4846182;29;20060;-74
2022/04/26 09:21:29;;;;;;;8.40;6.00;;;12.40;63.50;;;;;;4862925;29;20471;-74
2022/04/26 09:24:00;;;;;;;6.55;5.47;;;12.60;63.00;;;;;;4862416;29;20053;-74
2022/04/26 09:26:37;;;;;;;8.27;5.40;;;12.70;62.60;;;;;;4844113;29;20054;-74
2022/04/26 09:29:06;;;;;;;10.85;5.03;;;12.80;62.20;;;;;;4827720;29;20072;-75
2022/04/26 09:31:37;;;;;;;6.05;4.78;;;13.00;61.80;;;;;;4844417;29;20523;-74
2022/04/26 09:34:12;;;;;;;9.80;5.68;;;13.00;61.30;;;;;;4862745;29;20427;-74
2022/04/26 09:36:45;;;;;;;10.43;5.70;;;13.20;60.90;;;;;;4863476;29;20057;-75
2022/04/26 09:39:19;;;;;;;7.25;5.43;;;13.20;60.90;;;;;;4860741;29;20049;-74
2022/04/26 09:42:08;;;;;;;6.15;4.78;;;13.30;60.50;;;;;;4862139;29;20435;-74
2022/04/26 09:44:40;;;;;;;10.90;5.20;;;13.50;59.00;;;;;;4861343;29;20479;-74
2022/04/26 09:47:09;;;;;;;10.20;5.38;;;13.50;57.70;;;;;;4856134;29;20065;-74
2022/04/26 09:49:38;;;;;;;9.18;5.55;;;13.50;58.40;;;;;;4843943;29;20054;-74
2022/04/26 09:52:08;;;;;;;8.40;5.38;;;13.70;58.30;;;;;;4853081;29;20415;-74
2022/04/26 09:54:37;;;;;;;7.80;5.00;;;13.80;57.50;;;;;;4860180;29;20058;-74
2022/04/26 09:57:06;;;;;;;6.38;5.00;;;13.80;57.20;;;;;;4862085;29;20061;-74
2022/04/26 09:59:54;;;;;;;8.05;4.70;;;13.80;57.30;;;;;;4843563;29;20054;-74
2022/04/26 10:02:27;;;;;;;8.15;4.57;;;14.00;56.80;;;;;;4850442;29;20053;-74
2022/04/26 10:04:58;;;;;;;6.70;5.30;;;14.10;56.10;;;;;;4843785;29;20054;-75
2022/04/26 10:07:28;;;;;;;11.07;5.28;;;14.20;55.80;;;;;;4842120;29;20048;-74
2022/04/26 10:09:56;;;;;;;9.50;5.03;;;14.20;55.80;;;;;;4862039;29;20064;-74
2022/04/26 10:12:24;;;;;;;9.95;5.15;;;14.20;55.90;;;;;;4856048;29;20045;-74
2022/04/26 10:14:51;;;;;;;8.27;5.20;;;14.30;55.80;;;;;;4847461;29;20061;-74
2022/04/26 10:17:20;;;;;;;16.25;4.70;;;14.40;55.50;;;;;;4860892;29;20057;-74
2022/04/26 10:19:48;;;;;;;7.68;4.40;;;14.30;55.60;;;;;;4856895;29;20050;-74
2022/04/26 10:22:55;;;;;;;5.28;3.63;;;14.30;55.30;;;;;;4842752;29;20396;-74
2022/04/26 10:25:25;;;;;;;8.07;4.15;;;14.30;54.00;;;;;;4858772;29;20045;-74
2022/04/26 10:28:23;;;;;;;7.55;3.85;;;14.20;53.50;;;;;;4861590;29;20344;-74
2022/04/26 10:30:54;;;;;;;6.45;4.53;;;14.20;53.10;;;;;;4861592;29;20050;-74
2022/04/26 10:33:40;;;;;;;6.30;4.22;;;14.30;53.60;;;;;;4861509;29;20054;-74
2022/04/26 10:36:20;;;;;;;7.93;4.78;;;14.60;53.20;;;;;;4851190;29;20065;-74
2022/04/26 10:39:06;;;;;;;5.43;4.45;;;14.80;52.30;;;;;;4857694;29;20042;-74
2022/04/26 10:41:35;;;;;;;7.43;4.32;;;14.80;51.60;;;;;;4854537;29;20069;-74
2022/04/26 10:44:21;;;;;;;6.38;4.32;;;14.90;52.00;;;;;;4860914;29;20056;-74
2022/04/26 10:46:55;;;;;;;7.00;4.00;;;15.00;51.50;;;;;;4848903;29;20492;-74
2022/04/26 10:49:26;;;;;;;5.53;3.80;;;15.20;51.60;;;;;;4851251;29;20053;-74
2022/04/26 10:51:55;;;;;;;6.55;3.90;;;15.40;51.30;;;;;;4857379;29;20053;-73
2022/04/26 10:54:48;;;;;;;48.80;25.77;;;15.70;51.00;;;;;;4852591;29;20057;-74
2022/04/26 10:57:17;;;;;;;5.03;4.53;;;15.90;49.80;;;;;;4858000;29;20096;-74
2022/04/26 10:59:56;;;;;;;5.00;4.13;;;16.10;49.30;;;;;;4852251;29;20050;-74
2022/04/26 11:02:27;;;;;;;12.55;7.15;;;16.20;48.30;;;;;;4842744;29;20046;-74
2022/04/26 11:05:00;;;;;;;7.68;4.32;;;16.30;48.40;;;;;;4846887;29;20511;-74
2022/04/26 11:07:29;;;;;;;6.07;3.88;;;16.40;48.50;;;;;;4854009;29;20054;-74
2022/04/26 11:09:58;;;;;;;7.55;2.95;;;16.60;47.50;;;;;;4859512;29;20064;-74
2022/04/26 11:12:27;;;;;;;4.32;3.80;;;16.80;47.50;;;;;;4859240;29;20046;-73
2022/04/26 11:14:58;;;;;;;5.15;3.47;;;17.10;46.50;;;;;;4850357;29;20057;-73
2022/04/26 11:17:27;;;;;;;5.35;4.15;;;17.30;45.90;;;;;;4859735;29;20433;-74
2022/04/26 11:20:00;;;;;;;8.50;4.50;;;17.40;44.80;;;;;;4856332;29;20052;-73
2022/04/26 11:22:29;;;;;;;7.15;4.50;;;17.40;44.80;;;;;;4841555;29;20412;-73
2022/04/26 11:28:10;;;;;;;7.50;4.18;;;17.50;45.40;;;;;;4860516;29;20045;-74
2022/04/26 11:30:55;;;;;;;5.38;3.88;;;17.70;45.50;;;;;;4846804;29;20050;-74
2022/04/26 11:33:25;;;;;;;4.40;3.30;;;17.70;43.70;;;;;;4852658;29;20053;-73
2022/04/26 11:35:55;;;;;;;6.00;3.15;;;17.90;44.40;;;;;;4855033;29;20056;-74
2022/04/26 11:38:24;;;;;;;4.68;2.97;;;18.10;43.40;;;;;;4851982;29;20057;-74
2022/04/26 11:40:58;;;;;;;5.95;3.25;;;18.10;42.90;;;;;;4841995;29;20050;-74
2022/04/26 11:43:33;;;;;;;3.35;2.60;;;17.80;42.50;;;;;;4855593;29;20400;-74
2022/04/26 11:46:03;;;;;;;4.95;3.20;;;17.30;43.20;;;;;;4853274;29;20073;-73
2022/04/26 11:48:36;;;;;;;3.95;3.15;;;16.80;44.20;;;;;;4853478;29;20057;-74
2022/04/26 11:51:04;;;;;;;4.70;2.95;;;16.60;44.80;;;;;;4849752;29;20395;-74
2022/04/26 11:53:36;;;;;;;4.38;3.00;;;16.70;45.30;;;;;;4859053;29;20053;-73
2022/04/26 11:56:05;;;;;;;7.78;2.60;;;16.60;45.10;;;;;;4843383;29;20523;-73
2022/04/26 11:58:35;;;;;;;3.45;2.42;;;16.50;45.20;;;;;;4842828;29;20053;-74
2022/04/26 12:01:03;;;;;;;8.23;2.60;;;16.40;45.00;;;;;;4859801;29;20058;-73
2022/04/26 12:03:46;;;;;;;3.90;2.70;;;16.50;45.00;;;;;;4853153;29;20048;-73
2022/04/26 12:06:17;;;;;;;3.47;2.78;;;16.40;45.10;;;;;;4849012;29;20049;-74
2022/04/26 12:08:50;;;;;;;4.28;2.50;;;16.60;44.30;;;;;;4859465;29;20053;-73
2022/04/26 12:11:20;;;;;;;4.53;2.25;;;16.60;44.20;;;;;;4842891;29;20504;-74
2022/04/26 12:14:11;;;;;;;3.88;2.38;;;16.70;43.70;;;;;;4857053;29;20053;-74
2022/04/26 12:16:56;;;;;;;5.25;2.33;;;16.70;43.40;;;;;;4852884;29;20049;-74
2022/04/26 12:19:36;;;;;;;4.85;2.88;;;16.60;43.00;;;;;;4859475;29;20049;-73
2022/04/26 12:22:05;;;;;;;3.25;2.70;;;16.60;42.80;;;;;;4859726;29;20057;-73
2022/04/26 12:24:46;;;;;;;5.65;2.28;;;16.40;42.70;;;;;;4858625;29;20427;-74
2022/04/26 12:27:26;;;;;;;3.85;2.50;;;16.30;43.30;;;;;;4859756;29;20057;-74
2022/04/26 12:29:54;;;;;;;3.65;2.25;;;16.10;43.70;;;;;;4843303;29;20060;-74
2022/04/26 12:32:30;;;;;;;5.18;2.15;;;16.00;43.60;;;;;;4852252;29;20473;-74
2022/04/26 12:35:00;;;;;;;2.72;2.33;;;16.10;44.10;;;;;;4842348;29;20053;-74
2022/04/26 12:37:31;;;;;;;2.28;2.03;;;16.20;43.60;;;;;;4850457;29;20057;-74
2022/04/26 12:40:09;;;;;;;2.50;2.00;;;16.30;43.30;;;;;;4843054;29;20058;-73
2022/04/26 12:42:39;;;;;;;2.63;2.20;;;16.30;42.70;;;;;;4855494;29;20057;-74
2022/04/26 12:45:21;;;;;;;3.90;2.30;;;16.70;42.40;;;;;;4845745;29;20046;-69
2022/04/26 12:50:52;;;;;;;2.45;2.25;;;17.20;41.60;;;;;;4858831;29;20055;-68
2022/04/26 12:53:23;;;;;;;2.20;2.00;;;17.30;41.30;;;;;;4862119;29;20057;-72
2022/04/26 12:55:53;;;;;;;3.97;2.67;;;17.80;41.40;;;;;;4856224;29;20061;-68
2022/04/26 12:58:38;;;;;;;2.80;2.50;;;18.60;40.90;;;;;;4844937;29;20369;-69
2022/04/26 13:01:07;;;;;;;5.60;2.42;;;19.60;39.10;;;;;;4840452;29;20526;-69
2022/04/26 13:03:36;;;;;;;4.28;2.50;;;20.60;37.90;;;;;;4863038;29;20299;-68
2022/04/26 13:06:11;;;;;;;4.35;2.45;;;21.10;36.60;;;;;;4846556;29;20069;-68
2022/04/26 13:08:58;;;;;;;4.60;2.25;;;20.90;34.90;;;;;;4861473;29;20061;-67
2022/04/26 13:11:33;;;;;;;2.58;2.10;;;20.30;35.30;;;;;;4862794;29;20057;-68
2022/04/26 13:14:00;;;;;;;3.10;2.17;;;20.00;35.50;;;;;;4862770;29;20061;-68
2022/04/26 13:16:28;;;;;;;3.90;2.70;;;19.70;35.20;;;;;;4863174;29;20060;-69
2022/04/26 13:18:55;;;;;;;4.88;2.65;;;19.20;35.50;;;;;;4862396;29;20072;-69
2022/04/26 13:21:23;;;;;;;3.58;2.10;;;18.70;36.10;;;;;;4862694;29;20215;-69
2022/04/26 13:23:51;;;;;;;4.20;2.20;;;18.40;36.70;;;;;;4862004;29;20064;-68
2022/04/26 13:26:18;;;;;;;5.00;2.20;;;18.10;37.10;;;;;;4862636;29;20056;-69
2022/04/26 13:28:46;;;;;;;3.78;2.20;;;18.00;37.10;;;;;;4862175;29;20060;-69
2022/04/26 13:31:14;;;;;;;5.85;2.40;;;17.80;37.60;;;;;;4858943;29;20420;-68
2022/04/26 13:33:44;;;;;;;2.53;2.20;;;17.70;37.90;;;;;;4845235;29;20066;-68
2022/04/26 13:36:12;;;;;;;3.70;2.63;;;17.50;37.60;;;;;;4833378;29;20061;-69
2022/04/26 13:38:40;;;;;;;3.33;2.25;;;17.30;37.90;;;;;;4862449;29;20053;-68
2022/04/26 13:41:07;;;;;;;4.63;2.50;;;17.00;38.60;;;;;;4862471;29;20368;-69
2022/04/26 13:43:35;;;;;;;3.20;2.33;;;16.80;39.00;;;;;;4862072;29;20211;-70
2022/04/26 13:46:19;;;;;;;5.32;2.28;;;16.70;39.10;;;;;;4857922;29;20058;-67
2022/04/26 13:48:47;;;;;;;3.65;2.33;;;16.50;39.80;;;;;;4843891;29;20057;-67
2022/04/26 13:51:15;;;;;;;3.20;2.13;;;16.30;40.10;;;;;;4852123;29;20053;-67
2022/04/26 13:53:43;;;;;;;8.90;2.80;;;16.30;40.30;;;;;;4861418;29;20078;-68
2022/04/26 13:56:10;;;;;;;4.53;2.50;;;16.30;40.40;;;;;;4862166;29;20499;-67
2022/04/26 13:58:39;;;;;;;4.57;2.80;;;16.20;40.50;;;;;;4860953;29;20053;-67
2022/04/26 14:01:07;;;;;;;5.50;2.65;;;16.10;40.30;;;;;;4861944;29;20408;-67
2022/04/26 14:03:34;;;;;;;3.03;2.33;;;16.10;40.60;;;;;;4852242;29;20073;-67
2022/04/26 14:06:02;;;;;;;3.25;2.60;;;16.80;41.10;;;;;;4843318;29;20065;-68
2022/04/26 14:08:31;;;;;;;4.45;2.50;;;18.00;40.20;;;;;;4843366;29;20042;-67
2022/04/26 14:10:58;;;;;;;7.65;2.88;;;19.20;38.30;;;;;;4843311;29;20389;-67
2022/04/26 14:13:26;;;;;;;3.10;2.70;;;19.70;37.80;;;;;;4843461;29;20054;-68
2022/04/26 14:24:12;;;;;;;3.10;2.30;;;22.80;33.80;;;;;;4853118;29;20045;-68
2022/04/26 14:26:42;;;;;;;4.22;2.20;;;23.40;32.60;;;;;;4861734;29;20065;-68
2022/04/26 14:29:11;;;;;;;4.57;2.78;;;23.10;31.90;;;;;;4861630;29;20376;-68
2022/04/26 14:31:44;;;;;;;7.53;3.03;;;22.10;31.70;;;;;;4845150;29;20461;-68
2022/04/26 14:34:14;;;;;;;6.97;2.83;;;20.80;33.40;;;;;;4861526;29;20506;-67
2022/04/26 14:36:42;;;;;;;6.50;2.92;;;19.60;35.00;;;;;;4844794;29;20408;-67
2022/04/26 14:39:22;;;;;;;5.28;2.83;;;18.70;36.20;;;;;;4861500;29;20052;-67
2022/04/26 14:41:50;;;;;;;5.85;3.30;;;17.80;37.30;;;;;;4856118;29;20065;-67
2022/04/26 14:44:17;;;;;;;5.00;2.92;;;17.20;38.30;;;;;;4843464;29;20530;-67
2022/04/26 14:46:45;;;;;;;5.80;3.58;;;16.70;39.20;;;;;;4841505;29;20054;-67
2022/04/26 14:49:12;;;;;;;5.45;3.00;;;16.20;39.90;;;;;;4861393;29;20479;-67
2022/04/26 14:51:40;;;;;;;4.90;2.88;;;15.80;40.60;;;;;;4861330;29;20052;-73
2022/04/26 14:54:08;;;;;;;5.50;2.83;;;15.50;41.20;;;;;;4859960;29;20058;-72
2022/04/26 14:56:36;;;;;;;5.03;3.00;;;15.30;41.50;;;;;;4849900;29;20060;-72
2022/04/26 14:59:19;;;;;;;5.38;3.10;;;15.10;42.00;;;;;;4843083;29;20050;-72
2022/04/26 15:01:50;;;;;;;5.70;2.90;;;15.00;42.40;;;;;;4860041;29;20049;-72
2022/04/26 15:04:19;;;;;;;6.63;2.90;;;14.80;42.70;;;;;;4859917;29;20061;-72
2022/04/26 15:06:48;;;;;;;5.22;3.05;;;14.70;43.30;;;;;;4850702;29;20061;-72
2022/04/26 15:17:37;;;;;;;3.67;3.10;;;14.20;44.10;;;;;;4858200;29;20433;-73
2022/04/26 15:20:05;;;;;;;3.13;2.65;;;14.20;44.40;;;;;;4841741;29;20050;-73
2022/04/26 15:22:34;;;;;;;5.45;3.33;;;14.20;44.60;;;;;;4842151;29;20049;-73
2022/04/26 15:25:05;;;;;;;4.43;3.20;;;14.20;44.60;;;;;;4850180;29;20488;-73
2022/04/26 15:27:38;;;;;;;8.02;2.97;;;14.20;44.80;;;;;;4860371;29;20049;-73
2022/04/26 15:30:10;;;;;;;;;;;14.20;45.00;;;;;;4856018;29;20053;-73
2022/04/26 15:32:37;;;;;;;4.38;2.80;;;14.20;45.00;;;;;;4853558;29;19999;-73
2022/04/26 15:35:06;;;;;;;4.32;2.97;;;14.30;44.80;;;;;;4860619;29;20041;-73
2022/04/26 15:37:34;;;;;;;3.10;2.80;;;14.30;44.90;;;;;;4856656;29;20053;-73
2022/04/26 15:40:02;;;;;;;4.47;2.88;;;14.40;44.80;;;;;;4841965;29;20053;-73
2022/04/26 15:42:34;;;;;;;7.75;3.00;;;14.50;44.80;;;;;;4853491;29;20054;-73
2022/04/26 15:45:01;;;;;;;6.78;2.85;;;14.50;44.70;;;;;;4858447;29;20058;-73
2022/04/26 15:47:29;;;;;;;4.40;3.10;;;14.50;44.70;;;;;;4859466;29;20046;-74
2022/04/26 15:49:57;;;;;;;7.32;3.10;;;14.60;44.80;;;;;;4857410;29;20389;-73
2022/04/26 15:52:25;;;;;;;5.05;3.08;;;14.70;44.80;;;;;;4841590;29;20057;-72
2022/04/26 15:54:53;;;;;;;3.53;2.88;;;14.80;44.50;;;;;;4840162;29;20049;-72
2022/04/26 15:57:20;;;;;;;6.03;2.92;;;14.80;44.00;;;;;;4846270;29;20503;-73
2022/04/26 15:59:48;;;;;;;7.43;2.95;;;14.90;43.80;;;;;;4856404;29;20053;-73
2022/04/26 16:02:16;;;;;;;10.82;2.90;;;15.00;43.50;;;;;;4851508;29;20064;-72
2022/04/26 16:04:45;;;;;;;5.78;2.97;;;15.10;43.80;;;;;;4857940;29;20064;-73
2022/04/26 16:07:12;;;;;;;5.40;2.70;;;15.30;43.60;;;;;;4859942;29;20053;-73
2022/04/26 16:20:45;;;;;;;3.33;3.03;;;17.30;40.40;;;;;;4851879;29;20037;-72
2022/04/26 16:23:13;;;;;;;3.67;2.80;;;18.30;39.00;;;;;;4859572;29;20064;-74
2022/04/26 16:25:40;;;;;;;4.40;2.55;;;19.30;37.30;;;;;;4859554;29;20421;-73
2022/04/26 16:28:09;;;;;;;3.33;2.42;;;20.00;36.30;;;;;;4860084;29;20049;-73
2022/04/26 16:30:38;;;;;;;3.47;2.70;;;20.40;35.30;;;;;;4859903;29;20046;-73
2022/04/26 16:33:06;;;;;;;4.55;3.15;;;20.30;35.00;;;;;;4839915;29;20057;-73
2022/04/26 16:35:34;;;;;;;3.60;2.58;;;19.90;34.10;;;;;;4841443;29;20053;-73
2022/04/26 16:38:02;;;;;;;5.43;3.15;;;19.30;34.80;;;;;;4842680;29;20050;-73
2022/04/26 16:40:31;;;;;;;3.00;2.65;;;18.80;35.70;;;;;;4852241;29;20054;-72
2022/04/26 16:42:58;;;;;;;11.88;3.08;;;18.30;36.50;;;;;;4852912;29;20508;-72
2022/04/26 16:45:26;;;;;;;5.45;2.95;;;17.80;37.30;;;;;;4849818;29;20045;-73
2022/04/26 16:47:53;;;;;;;4.22;2.80;;;17.00;38.40;;;;;;4859215;29;20045;-72
2022/04/26 16:50:22;;;;;;;4.90;3.00;;;16.40;39.60;;;;;;4858157;29;20053;-73
2022/04/26 16:52:50;;;;;;;6.82;3.17;;;15.80;40.90;;;;;;4859154;29;20046;-73
2022/04/26 16:55:18;;;;;;;4.93;2.83;;;15.30;42.00;;;;;;4856829;29;20065;-73
2022/04/26 16:57:45;;;;;;;4.70;3.20;;;14.80;43.10;;;;;;4849686;29;20041;-72
2022/04/26 17:00:15;;;;;;;6.05;3.30;;;14.50;43.90;;;;;;4847621;29;20057;-72
2022/04/26 17:02:43;;;;;;;7.65;3.42;;;14.30;44.80;;;;;;4854791;29;20365;-72
2022/04/26 17:05:14;;;;;;;8.85;3.67;;;14.00;45.30;;;;;;4855301;29;20049;-72
2022/04/26 17:07:46;;;;;;;7.60;3.20;;;13.80;45.60;;;;;;4856510;29;20057;-73
2022/04/26 17:10:15;;;;;;;4.65;3.35;;;13.70;46.10;;;;;;4858432;29;20042;-73
2022/04/26 17:12:48;;;;;;;4.88;3.38;;;13.60;46.40;;;;;;4858819;29;20080;-73
2022/04/26 17:15:17;;;;;;;5.53;3.40;;;13.50;46.60;;;;;;4856073;29;20507;-73
2022/04/26 17:17:45;;;;;;;7.60;3.42;;;13.30;46.90;;;;;;4858162;29;20050;-74
2022/04/26 17:20:17;;;;;;;5.50;3.30;;;13.30;47.10;;;;;;4857065;29;20072;-74
2022/04/26 17:22:44;;;;;;;6.55;3.22;;;13.20;47.50;;;;;;4858372;29;20045;-74
2022/04/26 17:25:13;;;;;;;8.18;3.92;;;13.20;47.70;;;;;;4854659;29;20438;-72